Time;durP1;ratioP1;P1;durP2;ratioP2;P2;SDS_P1;SDS_P2;PMS_P1;PMS_P2;Temp;Humidity;BMP_temperature;BMP_pressure;BME280_temperature;BME280_humidity;BME280_pressure;Samples;Min_cycle;Max_cycle;Signal;HPM_P1;HPM_P2
2021/06/09 00:00:36;;;;;;;15.95;14.20;;;19.70;99.90;;;;;;2059115;28;20030;-70
2021/06/09 00:01:36;;;;;;;14.30;12.90;;;19.60;99.90;;;;;;2062625;28;20034;-70
2021/06/09 00:02:37;;;;;;;19.23;14.57;;;19.70;99.90;;;;;;2062935;28;20454;-70
2021/06/09 00:03:38;;;;;;;18.48;16.58;;;19.60;99.90;;;;;;2062942;28;20027;-70
2021/06/09 00:04:38;;;;;;;18.08;16.38;;;19.70;99.90;;;;;;2062764;28;20454;-70
2021/06/09 00:05:39;;;;;;;18.10;16.38;;;19.60;99.90;;;;;;2063008;28;20098;-70
2021/06/09 00:06:39;;;;;;;17.35;15.75;;;19.60;99.90;;;;;;2062512;28;20034;-70
2021/06/09 00:07:40;;;;;;;18.38;16.58;;;19.60;99.90;;;;;;2062997;28;20109;-70
2021/06/09 00:08:41;;;;;;;19.60;17.55;;;19.50;99.90;;;;;;2063122;28;20052;-70
2021/06/09 00:09:42;;;;;;;16.90;15.30;;;19.50;99.90;;;;;;2063107;28;20089;-70
2021/06/09 00:10:42;;;;;;;15.93;14.43;;;19.60;99.90;;;;;;2062959;28;20026;-70
2021/06/09 00:11:43;;;;;;;14.77;13.50;;;19.50;99.90;;;;;;2062287;28;20478;-70
2021/06/09 00:12:43;;;;;;;16.10;14.55;;;19.50;99.90;;;;;;2062747;28;20060;-70
2021/06/09 00:13:44;;;;;;;18.38;16.70;;;19.50;99.90;;;;;;2055073;28;20143;-70
2021/06/09 00:14:45;;;;;;;19.45;17.48;;;19.50;99.90;;;;;;2046007;29;20379;-70
2021/06/09 00:15:46;;;;;;;20.63;17.88;;;19.50;99.90;;;;;;2054419;28;20086;-70
2021/06/09 00:16:46;;;;;;;19.50;17.50;;;19.40;99.90;;;;;;2054666;28;20144;-70
2021/06/09 00:17:47;;;;;;;18.90;17.25;;;19.40;99.90;;;;;;2054987;28;20084;-70
2021/06/09 00:18:48;;;;;;;18.98;17.27;;;19.40;99.90;;;;;;2054775;28;20034;-70
2021/06/09 00:19:48;;;;;;;19.40;17.60;;;19.40;99.90;;;;;;2054868;28;20073;-70
2021/06/09 00:20:49;;;;;;;18.27;16.52;;;19.40;99.90;;;;;;2057650;28;20482;-70
2021/06/09 00:21:50;;;;;;;19.20;17.27;;;19.40;99.90;;;;;;2056252;28;20402;-70
2021/06/09 00:22:50;;;;;;;17.27;15.68;;;19.40;99.90;;;;;;2057506;28;20045;-70
2021/06/09 00:23:51;;;;;;;16.50;14.90;;;19.30;99.90;;;;;;2063089;28;20446;-70
2021/06/09 00:24:51;;;;;;;17.60;15.95;;;19.30;99.90;;;;;;2062649;28;20050;-70
2021/06/09 00:25:54;;;;;;;18.45;16.85;;;19.30;99.90;;;;;;2062777;28;20097;-70
2021/06/09 00:26:54;;;;;;;17.58;15.88;;;19.30;99.90;;;;;;2062592;28;20547;-70
2021/06/09 00:27:57;;;;;;;18.70;17.05;;;19.30;99.90;;;;;;2062964;28;20437;-70
2021/06/09 00:28:59;;;;;;;19.05;17.33;;;19.30;99.90;;;;;;2062806;28;20371;-70
2021/06/09 00:29:59;;;;;;;20.60;18.58;;;19.30;99.90;;;;;;2062883;28;20631;-70
2021/06/09 00:31:01;;;;;;;22.38;20.00;;;19.20;99.90;;;;;;2060353;28;20035;-70
2021/06/09 00:32:02;;;;;;;22.90;20.88;;;19.30;99.90;;;;;;2054353;28;20031;-70
2021/06/09 00:33:03;;;;;;;20.90;18.83;;;19.30;99.90;;;;;;2054454;28;20038;-70
2021/06/09 00:34:04;;;;;;;23.92;21.63;;;19.20;99.90;;;;;;2054846;28;20046;-70
2021/06/09 00:35:06;;;;;;;22.85;20.67;;;19.20;99.90;;;;;;2054798;28;20034;-70
2021/06/09 00:36:07;;;;;;;23.98;21.63;;;19.20;99.90;;;;;;2054638;28;20102;-70
2021/06/09 00:37:07;;;;;;;22.77;20.67;;;19.20;99.90;;;;;;2070244;28;20029;-70
2021/06/09 00:38:08;;;;;;;22.05;20.05;;;19.20;99.90;;;;;;2069949;28;20363;-70
2021/06/09 00:39:08;;;;;;;19.38;17.50;;;19.20;99.90;;;;;;2056488;28;20035;-70
2021/06/09 00:40:11;;;;;;;18.38;16.77;;;19.20;99.90;;;;;;2061851;28;20022;-70
2021/06/09 00:41:11;;;;;;;22.92;20.77;;;19.20;99.90;;;;;;2060634;28;20026;-70
2021/06/09 00:42:18;;;;;;;21.10;19.10;;;19.20;99.90;;;;;;2062134;28;20026;-70
2021/06/09 00:43:20;;;;;;;22.35;20.15;;;19.20;99.90;;;;;;2062833;28;20015;-70
2021/06/09 00:44:21;;;;;;;24.08;21.58;;;19.20;99.90;;;;;;2062385;28;20053;-70
2021/06/09 00:45:22;;;;;;;23.30;21.20;;;19.20;99.90;;;;;;2062390;28;20029;-70
2021/06/09 00:46:30;;;;;;;20.42;18.50;;;19.20;99.90;;;;;;2062555;28;20905;-70
2021/06/09 00:47:31;;;;;;;21.60;18.95;;;19.20;99.90;;;;;;2062208;28;20087;-70
2021/06/09 00:48:32;;;;;;;24.60;22.23;;;19.10;99.90;;;;;;2061675;28;20038;-70
2021/06/09 00:49:33;;;;;;;24.08;21.77;;;19.20;99.90;;;;;;2062043;28;20026;-70
2021/06/09 00:50:34;;;;;;;25.08;22.65;;;19.20;99.90;;;;;;2062527;28;20035;-70
2021/06/09 00:51:35;;;;;;;24.65;22.38;;;19.10;99.90;;;;;;2062351;28;20033;-70
2021/06/09 00:52:36;;;;;;;26.63;23.88;;;19.20;99.90;;;;;;2062257;28;20079;-70
2021/06/09 00:53:39;;;;;;;27.08;24.35;;;19.20;99.90;;;;;;2061916;28;20034;-70
2021/06/09 00:54:40;;;;;;;29.92;26.92;;;19.20;99.90;;;;;;2054492;28;20023;-70
2021/06/09 00:55:41;;;;;;;31.77;28.52;;;19.20;99.90;;;;;;2060454;28;20018;-70
2021/06/09 00:56:41;;;;;;;26.00;23.45;;;19.20;99.90;;;;;;2062561;28;20485;-70
2021/06/09 00:57:42;;;;;;;30.15;27.08;;;19.20;99.90;;;;;;2062719;28;20409;-70
2021/06/09 00:58:46;;;;;;;31.10;28.00;;;19.20;99.90;;;;;;2062540;28;20039;-70
2021/06/09 00:59:47;;;;;;;29.65;26.73;;;19.20;99.90;;;;;;2062636;28;20026;-70
2021/06/09 01:00:48;;;;;;;27.85;25.08;;;19.10;99.90;;;;;;2054767;28;20363;-70
2021/06/09 01:01:49;;;;;;;23.25;20.95;;;19.10;99.90;;;;;;2053827;28;20026;-70
2021/06/09 01:02:50;;;;;;;23.83;21.48;;;19.10;99.90;;;;;;2054333;28;20025;-70
2021/06/09 01:03:51;;;;;;;23.40;20.83;;;19.10;99.90;;;;;;2060407;28;20405;-70
2021/06/09 01:04:52;;;;;;;25.05;22.65;;;19.10;99.90;;;;;;2061689;28;20037;-70
2021/06/09 01:05:52;;;;;;;25.38;22.98;;;19.20;99.90;;;;;;2053929;28;20034;-70
2021/06/09 01:06:53;;;;;;;23.80;21.40;;;19.10;99.90;;;;;;2059008;28;20030;-70
2021/06/09 01:07:54;;;;;;;24.80;22.30;;;19.10;99.90;;;;;;2062914;28;20455;-70
2021/06/09 01:08:54;;;;;;;19.70;17.80;;;19.10;99.90;;;;;;2062544;28;20586;-70
2021/06/09 01:09:55;;;;;;;24.17;21.73;;;19.10;99.90;;;;;;2062895;28;20026;-70
2021/06/09 01:10:56;;;;;;;25.98;23.30;;;19.10;99.90;;;;;;2062552;28;20026;-70
2021/06/09 01:11:57;;;;;;;24.45;22.15;;;19.10;99.90;;;;;;2061102;28;20068;-70
2021/06/09 01:12:59;;;;;;;23.08;20.80;;;19.10;99.90;;;;;;2061551;28;20041;-70
2021/06/09 01:14:00;;;;;;;21.77;19.70;;;19.10;99.90;;;;;;2054338;28;20055;-70
2021/06/09 01:15:00;;;;;;;20.23;18.33;;;19.10;99.90;;;;;;2055395;28;20042;-70
2021/06/09 01:16:01;;;;;;;24.40;20.08;;;19.10;99.90;;;;;;2054082;28;20103;-70
2021/06/09 01:17:01;;;;;;;24.95;22.48;;;19.00;99.90;;;;;;2061627;28;20030;-70
2021/06/09 01:18:04;;;;;;;27.83;25.23;;;19.00;99.90;;;;;;2059004;28;20055;-70
2021/06/09 01:19:05;;;;;;;24.00;21.80;;;19.10;99.90;;;;;;2054242;28;20489;-70
2021/06/09 01:20:06;;;;;;;25.27;22.80;;;19.10;99.90;;;;;;2060664;28;20034;-70
2021/06/09 01:21:07;;;;;;;24.40;22.00;;;19.00;99.90;;;;;;2061822;28;20490;-70
2021/06/09 01:22:08;;;;;;;26.63;24.00;;;19.00;99.90;;;;;;2054068;28;20041;-70
2021/06/09 01:23:09;;;;;;;26.08;23.73;;;19.00;99.90;;;;;;2059556;28;20041;-70
2021/06/09 01:24:09;;;;;;;27.58;24.98;;;19.00;99.90;;;;;;2062305;28;20022;-70
2021/06/09 01:25:10;;;;;;;24.02;21.73;;;19.00;99.90;;;;;;2062570;28;20026;-70
2021/06/09 01:26:11;;;;;;;21.17;19.27;;;19.00;99.90;;;;;;2062470;28;20117;-70
2021/06/09 01:27:12;;;;;;;20.90;18.83;;;19.00;99.90;;;;;;2062731;28;20037;-70
2021/06/09 01:28:12;;;;;;;22.30;19.85;;;19.00;99.90;;;;;;2062568;28;20038;-70
2021/06/09 01:29:14;;;;;;;20.65;18.55;;;19.00;99.90;;;;;;2061987;28;20450;-70
2021/06/09 01:30:15;;;;;;;26.00;23.50;;;19.00;99.90;;;;;;2062248;28;20026;-70
2021/06/09 01:31:16;;;;;;;26.48;23.88;;;19.00;99.90;;;;;;2057893;28;20041;-70
2021/06/09 01:32:17;;;;;;;28.00;23.52;;;19.00;99.90;;;;;;2053885;28;20482;-70
2021/06/09 01:33:18;;;;;;;26.70;24.20;;;19.00;99.90;;;;;;2053986;28;20027;-70
2021/06/09 01:34:19;;;;;;;24.90;22.65;;;19.00;99.90;;;;;;2061699;28;20026;-70
2021/06/09 01:35:20;;;;;;;23.27;21.05;;;19.00;99.90;;;;;;2061683;28;20022;-70
2021/06/09 01:36:22;;;;;;;25.52;22.25;;;19.00;99.90;;;;;;2047911;28;20086;-70
2021/06/09 01:37:22;;;;;;;22.60;20.35;;;19.00;99.90;;;;;;2056978;28;20022;-70
2021/06/09 01:38:23;;;;;;;20.95;18.95;;;19.00;99.90;;;;;;2062398;28;20386;-70
2021/06/09 01:39:24;;;;;;;23.88;21.38;;;19.00;99.90;;;;;;2062281;28;20029;-70
2021/06/09 01:40:25;;;;;;;22.30;20.30;;;19.00;99.90;;;;;;2062371;28;20026;-70
2021/06/09 01:41:26;;;;;;;23.33;21.20;;;19.00;99.90;;;;;;2062050;28;20034;-70
2021/06/09 01:42:29;;;;;;;27.15;24.58;;;18.90;99.90;;;;;;2062145;28;20466;-70
2021/06/09 01:43:30;;;;;;;23.50;21.20;;;18.90;99.90;;;;;;2062481;28;20037;-70
2021/06/09 01:44:31;;;;;;;25.63;22.95;;;19.00;99.90;;;;;;2062338;28;20019;-70
2021/06/09 01:45:34;;;;;;;26.02;23.30;;;19.00;99.90;;;;;;2062260;28;20462;-70
2021/06/09 01:46:34;;;;;;;26.38;23.77;;;18.90;99.90;;;;;;2062455;28;20411;-70
2021/06/09 01:47:35;;;;;;;23.52;21.23;;;18.90;99.90;;;;;;2057990;28;20018;-70
2021/06/09 01:48:35;;;;;;;21.90;19.77;;;18.90;99.90;;;;;;2061870;28;20040;-70
2021/06/09 01:49:36;;;;;;;22.73;20.42;;;18.90;99.90;;;;;;2062487;28;20502;-70
2021/06/09 01:50:39;;;;;;;21.02;18.95;;;18.90;99.90;;;;;;2062264;28;20029;-69
2021/06/09 01:51:40;;;;;;;20.13;18.33;;;18.90;99.90;;;;;;2061088;28;20118;-69
2021/06/09 01:52:41;;;;;;;21.95;19.83;;;18.90;99.90;;;;;;2061575;28;20482;-69
2021/06/09 01:53:42;;;;;;;22.75;20.35;;;18.90;99.90;;;;;;2061847;28;20022;-70
2021/06/09 01:54:42;;;;;;;21.52;19.52;;;18.90;99.90;;;;;;2059919;28;20023;-70
2021/06/09 01:55:43;;;;;;;21.15;19.05;;;18.90;99.90;;;;;;2055268;28;20031;-70
2021/06/09 01:56:44;;;;;;;23.05;20.88;;;18.90;99.90;;;;;;2059746;28;20094;-70
2021/06/09 01:57:44;;;;;;;27.08;24.17;;;18.90;99.90;;;;;;2049966;28;20027;-70
2021/06/09 01:58:45;;;;;;;25.27;22.92;;;18.90;99.90;;;;;;2053674;28;20114;-70
2021/06/09 01:59:46;;;;;;;25.17;22.73;;;18.90;99.90;;;;;;2062044;28;20102;-70
2021/06/09 02:00:47;;;;;;;22.92;20.73;;;18.90;99.90;;;;;;2062706;28;20455;-70
2021/06/09 02:01:49;;;;;;;24.80;22.42;;;18.90;99.90;;;;;;2062343;28;20378;-70
2021/06/09 02:02:53;;;;;;;22.33;20.13;;;18.90;99.90;;;;;;2062518;28;20023;-70
2021/06/09 02:03:54;;;;;;;21.98;19.90;;;18.90;99.90;;;;;;2063308;28;20101;-70
2021/06/09 02:04:55;;;;;;;22.27;20.13;;;18.80;99.90;;;;;;2063627;28;20030;-69
2021/06/09 02:05:56;;;;;;;21.40;19.38;;;18.90;99.90;;;;;;2063464;28;20031;-70
2021/06/09 02:06:56;;;;;;;22.98;20.77;;;18.80;99.90;;;;;;2060812;28;20131;-70
2021/06/09 02:08:00;;;;;;;20.48;18.55;;;18.80;99.90;;;;;;2063774;28;20022;-70
2021/06/09 02:09:00;;;;;;;21.55;19.55;;;18.80;99.90;;;;;;2056633;28;20030;-70
2021/06/09 02:10:05;;;;;;;25.08;22.58;;;18.80;99.90;;;;;;2063209;28;20497;-69
2021/06/09 02:11:06;;;;;;;25.05;22.30;;;18.80;99.90;;;;;;2063528;28;20053;-70
2021/06/09 02:12:07;;;;;;;24.55;22.25;;;18.80;99.90;;;;;;2062829;28;20022;-70
2021/06/09 02:13:11;;;;;;;24.25;21.77;;;18.80;99.90;;;;;;2062945;28;20405;-70
2021/06/09 02:14:13;;;;;;;25.55;22.92;;;18.80;99.90;;;;;;2055217;28;20085;-69
2021/06/09 02:15:15;;;;;;;25.98;23.48;;;18.80;99.90;;;;;;2059163;28;20022;-70
2021/06/09 02:16:18;;;;;;;22.98;20.73;;;18.80;99.90;;;;;;2063347;28;20098;-70
2021/06/09 02:17:19;;;;;;;21.50;19.48;;;18.80;99.90;;;;;;2064257;28;20110;-70
2021/06/09 02:18:23;;;;;;;20.80;18.75;;;18.80;99.90;;;;;;2061587;28;20795;-70
2021/06/09 02:19:24;;;;;;;22.67;20.48;;;18.70;99.90;;;;;;2059543;28;20049;-70
2021/06/09 02:20:27;;;;;;;25.85;23.55;;;18.70;99.90;;;;;;2064951;28;20022;-70
2021/06/09 02:21:28;;;;;;;22.45;20.45;;;18.70;99.90;;;;;;2064423;28;20594;-70
2021/06/09 02:22:29;;;;;;;21.92;19.92;;;18.70;99.90;;;;;;2064734;28;20635;-70
2021/06/09 02:23:32;;;;;;;22.85;20.73;;;18.70;99.90;;;;;;2064590;28;20037;-70
2021/06/09 02:24:33;;;;;;;21.70;19.65;;;18.70;99.90;;;;;;2064557;28;20030;-70
2021/06/09 02:25:33;;;;;;;21.88;19.77;;;18.70;99.90;;;;;;2064777;28;20027;-70
2021/06/09 02:26:36;;;;;;;24.20;21.85;;;18.70;99.90;;;;;;2064291;28;20037;-70
2021/06/09 02:27:36;;;;;;;22.77;20.48;;;18.70;99.90;;;;;;2064638;28;20491;-70
2021/06/09 02:28:38;;;;;;;25.27;22.88;;;18.70;99.90;;;;;;2059602;28;20386;-70
2021/06/09 02:29:39;;;;;;;26.05;23.38;;;18.70;99.90;;;;;;2064419;28;20046;-70
2021/06/09 02:30:44;;;;;;;25.23;22.92;;;18.70;99.90;;;;;;2064927;28;20019;-70
2021/06/09 02:31:47;;;;;;;25.90;23.52;;;18.60;99.90;;;;;;2063644;28;20014;-70
2021/06/09 02:32:49;;;;;;;23.85;21.25;;;18.60;99.90;;;;;;2064767;28;20026;-70
2021/06/09 02:33:50;;;;;;;23.08;20.73;;;18.60;99.90;;;;;;2064271;28;20025;-70
2021/06/09 02:34:51;;;;;;;24.17;21.75;;;18.60;99.90;;;;;;2063809;28;20046;-70
2021/06/09 02:35:54;;;;;;;21.90;19.88;;;18.60;99.90;;;;;;2064122;28;20018;-70
2021/06/09 02:36:55;;;;;;;25.48;23.00;;;18.60;99.90;;;;;;2064832;28;20015;-70
2021/06/09 02:37:56;;;;;;;24.98;22.50;;;18.60;99.90;;;;;;2064565;28;20045;-70
2021/06/09 02:38:57;;;;;;;22.02;19.83;;;18.60;99.90;;;;;;2063806;28;20062;-70
2021/06/09 02:39:58;;;;;;;26.15;23.75;;;18.60;99.90;;;;;;2055977;28;20050;-70
2021/06/09 02:40:58;;;;;;;25.77;23.27;;;18.60;99.90;;;;;;2060298;28;20034;-70
2021/06/09 02:41:59;;;;;;;26.17;23.67;;;18.60;99.90;;;;;;2063717;28;20034;-70
2021/06/09 02:43:00;;;;;;;23.73;21.58;;;18.60;99.90;;;;;;2064666;28;20430;-70
2021/06/09 02:44:01;;;;;;;26.52;23.73;;;18.60;99.90;;;;;;2062192;28;20027;-70
2021/06/09 02:45:10;;;;;;;23.33;21.17;;;18.60;99.90;;;;;;2056736;28;20076;-70
2021/06/09 02:46:13;;;;;;;24.27;21.88;;;18.60;99.90;;;;;;2056591;28;20455;-70
2021/06/09 02:47:16;;;;;;;24.67;22.35;;;18.60;99.90;;;;;;2056611;28;20088;-70
2021/06/09 02:48:21;;;;;;;28.40;25.58;;;18.60;99.90;;;;;;2062848;28;20026;-69
2021/06/09 02:49:25;;;;;;;25.48;22.80;;;18.60;99.90;;;;;;2064534;28;20455;-70
2021/06/09 02:50:26;;;;;;;27.00;24.20;;;18.60;99.90;;;;;;2064432;28;20023;-70
2021/06/09 02:51:35;;;;;;;28.65;25.70;;;18.60;99.90;;;;;;2064542;28;20042;-70
2021/06/09 02:52:44;;;;;;;28.73;25.92;;;18.60;99.90;;;;;;2064540;28;20064;-69
2021/06/09 02:53:58;;;;;;;28.52;25.63;;;18.60;99.90;;;;;;2064883;28;20026;-70
2021/06/09 02:55:20;;;;;;;25.25;22.95;;;18.60;99.90;;;;;;2064579;28;20030;-70
2021/06/09 02:56:44;;;;;;;22.50;20.25;;;18.60;99.90;;;;;;2056679;28;20062;-70
2021/06/09 02:58:21;;;;;;;25.95;23.45;;;18.60;99.90;;;;;;2061640;28;20173;-70
2021/06/09 02:59:43;;;;;;;23.00;20.80;;;18.60;99.90;;;;;;2081036;28;20541;-70
2021/06/09 03:01:10;;;;;;;25.63;23.17;;;18.60;99.90;;;;;;2075401;28;20058;-70
2021/06/09 03:02:15;;;;;;;24.63;22.17;;;18.50;99.90;;;;;;2059940;28;20018;-70
2021/06/09 03:03:17;;;;;;;26.95;24.30;;;18.50;99.90;;;;;;2063652;28;20026;-70
2021/06/09 03:04:19;;;;;;;24.30;21.88;;;18.50;99.90;;;;;;2063540;28;20036;-70
2021/06/09 03:05:40;;;;;;;26.20;23.60;;;18.60;99.90;;;;;;2063401;28;20022;-69
2021/06/09 03:06:58;;;;;;;25.15;22.73;;;18.60;99.90;;;;;;2063728;28;20022;-70
2021/06/09 03:08:19;;;;;;;23.95;21.50;;;18.60;99.90;;;;;;2063484;28;20072;-70
2021/06/09 03:09:29;;;;;;;26.88;24.20;;;18.60;99.90;;;;;;2063276;28;20041;-70
2021/06/09 03:10:56;;;;;;;29.60;26.90;;;18.60;99.90;;;;;;2062833;28;20031;-70
2021/06/09 03:12:14;;;;;;;28.85;26.08;;;18.60;99.90;;;;;;2062219;28;20040;-70
2021/06/09 03:13:51;;;;;;;24.48;22.20;;;18.60;99.90;;;;;;2060468;28;20696;-70
2021/06/09 03:15:14;;;;;;;22.65;20.52;;;18.60;99.90;;;;;;2055065;28;20019;-70
2021/06/09 03:16:46;;;;;;;24.70;22.17;;;18.50;99.90;;;;;;2055505;28;20766;-69
2021/06/09 03:17:53;;;;;;;24.73;21.60;;;18.50;99.90;;;;;;2067434;28;20039;-70
2021/06/09 03:18:59;;;;;;;29.45;26.45;;;18.50;99.90;;;;;;2055314;28;20553;-70
2021/06/09 03:20:10;;;;;;;24.25;21.85;;;18.50;99.90;;;;;;2055498;28;20114;-70
2021/06/09 03:21:30;;;;;;;26.65;24.05;;;18.50;99.90;;;;;;2055157;28;20069;-70
2021/06/09 03:22:55;;;;;;;25.95;23.30;;;18.50;99.90;;;;;;2055489;28;20054;-70
2021/06/09 03:24:07;;;;;;;20.20;18.27;;;18.50;99.90;;;;;;2062321;28;20389;-70
2021/06/09 03:25:11;;;;;;;25.38;22.98;;;18.50;99.90;;;;;;2063375;28;20540;-70
2021/06/09 03:26:19;;;;;;;26.05;23.25;;;18.50;99.90;;;;;;2063082;28;20034;-70
2021/06/09 03:27:53;;;;;;;23.00;20.70;;;18.50;99.90;;;;;;2062311;28;20091;-70
2021/06/09 03:29:20;;;;;;;24.00;21.67;;;18.50;99.90;;;;;;2068073;28;20572;-70
2021/06/09 03:30:23;;;;;;;23.83;21.52;;;18.50;99.90;;;;;;2063815;28;20346;-70
2021/06/09 03:31:32;;;;;;;22.92;20.63;;;18.50;99.90;;;;;;2060117;28;20369;-70
2021/06/09 03:33:02;;;;;;;27.33;24.63;;;18.50;99.90;;;;;;2063341;28;20023;-70
2021/06/09 03:34:10;;;;;;;28.58;25.80;;;18.50;99.90;;;;;;2063278;28;20030;-70
2021/06/09 03:35:26;;;;;;;29.92;26.88;;;18.50;99.90;;;;;;2056350;28;20027;-70
2021/06/09 03:36:33;;;;;;;24.50;22.10;;;18.50;99.90;;;;;;2062993;28;20026;-70
2021/06/09 03:37:38;;;;;;;23.10;20.80;;;18.50;99.90;;;;;;2063165;28;20038;-70
2021/06/09 03:39:04;;;;;;;27.67;24.73;;;18.50;99.90;;;;;;2062982;28;20430;-70
2021/06/09 03:40:09;;;;;;;28.33;25.30;;;18.50;99.90;;;;;;2062539;28;20084;-70
2021/06/09 03:41:12;;;;;;;26.20;23.58;;;18.50;99.90;;;;;;2054326;28;20217;-70
2021/06/09 03:42:19;;;;;;;27.13;21.85;;;18.50;99.90;;;;;;2055701;28;20119;-70
2021/06/09 03:43:21;;;;;;;22.33;20.20;;;18.50;99.90;;;;;;2057749;28;20104;-70
2021/06/09 03:44:36;;;;;;;25.02;22.52;;;18.50;99.90;;;;;;2060014;28;20035;-70
2021/06/09 03:45:42;;;;;;;26.00;23.30;;;18.50;99.90;;;;;;2058152;28;20032;-70
2021/06/09 03:46:44;;;;;;;28.90;26.00;;;18.50;99.90;;;;;;2058473;28;20037;-70
2021/06/09 03:47:46;;;;;;;27.75;25.08;;;18.50;99.90;;;;;;2061452;28;20100;-70
2021/06/09 03:48:49;;;;;;;27.13;24.40;;;18.50;99.90;;;;;;2062773;28;20064;-70
2021/06/09 03:49:50;;;;;;;24.92;22.42;;;18.50;99.90;;;;;;2062816;28;20019;-70
2021/06/09 03:50:52;;;;;;;25.65;23.15;;;18.50;99.90;;;;;;2057815;28;20049;-70
2021/06/09 03:51:54;;;;;;;27.05;24.35;;;18.50;99.90;;;;;;2069998;28;20474;-70
2021/06/09 03:53:02;;;;;;;28.48;25.70;;;18.50;99.90;;;;;;2077128;28;20393;-70
2021/06/09 03:54:03;;;;;;;29.75;26.85;;;18.50;99.90;;;;;;2058647;28;20105;-70
2021/06/09 03:55:08;;;;;;;21.85;19.85;;;18.50;99.90;;;;;;2062831;28;20498;-70
2021/06/09 03:56:11;;;;;;;27.38;24.50;;;18.50;99.90;;;;;;2063246;28;20727;-70
2021/06/09 03:57:13;;;;;;;28.02;25.17;;;18.40;99.90;;;;;;2061706;28;20035;-70
2021/06/09 03:58:16;;;;;;;27.05;24.25;;;18.50;99.90;;;;;;2062394;28;20041;-70
2021/06/09 03:59:20;;;;;;;25.48;23.02;;;18.50;99.90;;;;;;2062504;28;20027;-70
2021/06/09 04:00:22;;;;;;;23.60;21.35;;;18.50;99.90;;;;;;2062919;28;20042;-70
2021/06/09 04:01:23;;;;;;;29.25;26.35;;;18.40;99.90;;;;;;2062506;28;20054;-70
2021/06/09 04:02:25;;;;;;;29.50;26.52;;;18.50;99.90;;;;;;2062553;28;20033;-70
2021/06/09 04:03:27;;;;;;;28.33;25.35;;;18.50;99.90;;;;;;2062061;28;20125;-70
2021/06/09 04:04:29;;;;;;;29.17;26.27;;;18.50;99.90;;;;;;2062193;28;20469;-70
2021/06/09 04:05:31;;;;;;;26.48;23.85;;;18.40;99.90;;;;;;2060195;28;20075;-70
2021/06/09 04:06:33;;;;;;;25.30;22.77;;;18.40;99.90;;;;;;2063049;28;20030;-70
2021/06/09 04:07:35;;;;;;;25.10;22.60;;;18.40;99.90;;;;;;2063216;28;20031;-70
2021/06/09 04:08:37;;;;;;;29.38;26.50;;;18.50;99.90;;;;;;2062810;28;20075;-70
2021/06/09 04:09:39;;;;;;;26.02;23.45;;;18.40;99.90;;;;;;2062811;28;20171;-70
2021/06/09 04:10:43;;;;;;;30.17;27.23;;;18.40;99.90;;;;;;2062771;28;20029;-70
2021/06/09 04:11:48;;;;;;;26.48;23.77;;;18.40;99.90;;;;;;2061847;28;20011;-70
2021/06/09 04:12:49;;;;;;;25.00;22.38;;;18.40;99.90;;;;;;2063085;28;20366;-70
2021/06/09 04:13:53;;;;;;;24.60;22.00;;;18.40;99.90;;;;;;2055386;28;20072;-70
2021/06/09 04:14:55;;;;;;;26.30;23.60;;;18.40;99.90;;;;;;2055133;28;20435;-70
2021/06/09 04:15:59;;;;;;;27.85;24.25;;;18.40;99.90;;;;;;2054645;28;20018;-70
2021/06/09 04:17:04;;;;;;;29.27;25.80;;;18.40;99.90;;;;;;2055060;28;20031;-70
2021/06/09 04:18:07;;;;;;;28.63;25.38;;;18.40;99.90;;;;;;2054904;28;20030;-70
2021/06/09 04:19:10;;;;;;;24.13;21.65;;;18.40;99.90;;;;;;2054949;28;20465;-70
2021/06/09 04:20:11;;;;;;;27.42;24.52;;;18.40;99.90;;;;;;2054793;28;20022;-70
2021/06/09 04:21:13;;;;;;;26.17;23.40;;;18.40;99.90;;;;;;2054843;28;20058;-70
2021/06/09 04:22:13;;;;;;;27.98;25.17;;;18.40;99.90;;;;;;2054262;28;20042;-70
2021/06/09 04:23:14;;;;;;;31.05;27.80;;;18.40;99.90;;;;;;2056562;28;20646;-70
2021/06/09 04:24:15;;;;;;;29.55;26.40;;;18.40;99.90;;;;;;2062748;28;20041;-70
2021/06/09 04:25:16;;;;;;;27.63;24.92;;;18.40;99.90;;;;;;2063108;28;20031;-70
2021/06/09 04:26:18;;;;;;;26.70;24.10;;;18.40;99.90;;;;;;2062241;28;20046;-70
2021/06/09 04:27:32;;;;;;;30.27;27.15;;;18.40;99.90;;;;;;2062143;28;20034;-70
2021/06/09 04:28:33;;;;;;;30.35;27.08;;;18.50;99.90;;;;;;2054533;28;20034;-70
2021/06/09 04:29:35;;;;;;;29.63;26.83;;;18.50;99.90;;;;;;2058639;28;20019;-70
2021/06/09 04:30:36;;;;;;;29.38;26.38;;;18.50;99.90;;;;;;2062711;28;20054;-70
2021/06/09 04:31:36;;;;;;;28.52;25.77;;;18.60;99.90;;;;;;2063772;28;20029;-70
2021/06/09 04:32:59;;;;;;;26.73;24.23;;;18.60;99.90;;;;;;2068374;28;20022;-70
2021/06/09 04:33:59;;;;;;;28.42;25.17;;;18.60;99.90;;;;;;2061857;28;20022;-70
2021/06/09 04:35:01;;;;;;;29.27;26.25;;;18.60;99.90;;;;;;2062550;28;20019;-70
2021/06/09 04:36:01;;;;;;;31.33;28.13;;;18.60;99.90;;;;;;2058561;28;20027;-70
2021/06/09 04:37:02;;;;;;;30.77;27.40;;;18.70;99.90;;;;;;2062356;28;20063;-70
2021/06/09 04:38:04;;;;;;;30.08;26.83;;;18.70;99.90;;;;;;2055435;28;20023;-70
2021/06/09 04:39:05;;;;;;;29.50;26.45;;;18.70;99.90;;;;;;2056135;28;20168;-70
2021/06/09 04:40:06;;;;;;;29.98;26.67;;;18.70;99.90;;;;;;2062760;28;20034;-70
2021/06/09 04:41:07;;;;;;;27.80;24.77;;;18.70;99.90;;;;;;2062311;28;20084;-70
2021/06/09 04:42:09;;;;;;;29.33;26.52;;;18.80;99.90;;;;;;2059260;28;20038;-70
2021/06/09 04:43:10;;;;;;;27.85;25.00;;;18.80;99.90;;;;;;2057553;28;20035;-70
2021/06/09 04:44:14;;;;;;;30.05;26.95;;;18.80;99.90;;;;;;2076900;28;20024;-70
2021/06/09 04:45:16;;;;;;;29.63;26.65;;;18.80;99.90;;;;;;2058463;28;20030;-70
2021/06/09 04:46:19;;;;;;;29.00;25.88;;;18.90;99.90;;;;;;2055831;28;20038;-70
2021/06/09 04:47:20;;;;;;;31.48;28.10;;;18.90;99.90;;;;;;2060649;28;20113;-70
2021/06/09 04:48:20;;;;;;;29.17;26.38;;;18.90;99.90;;;;;;2061172;28;20023;-70
2021/06/09 04:49:30;;;;;;;31.85;28.65;;;18.90;99.90;;;;;;2060330;28;20027;-70
2021/06/09 04:50:30;;;;;;;30.57;27.33;;;19.00;99.90;;;;;;2057089;28;20377;-70
2021/06/09 04:51:37;;;;;;;30.13;27.13;;;19.00;99.90;;;;;;2058873;28;20297;-70
2021/06/09 04:52:37;;;;;;;29.95;27.02;;;19.00;99.90;;;;;;2059337;28;20105;-70
2021/06/09 04:53:38;;;;;;;31.25;27.48;;;19.00;99.90;;;;;;2059341;28;20023;-70
2021/06/09 04:54:40;;;;;;;30.48;27.35;;;19.10;99.90;;;;;;2055877;28;20057;-70
2021/06/09 04:55:46;;;;;;;29.20;26.20;;;19.10;99.90;;;;;;2055038;28;20442;-70
2021/06/09 04:56:46;;;;;;;29.80;26.90;;;19.20;99.90;;;;;;2056383;28;20068;-70
2021/06/09 04:57:47;;;;;;;29.95;26.65;;;19.20;99.90;;;;;;2057460;28;20031;-70
2021/06/09 04:58:48;;;;;;;31.13;28.00;;;19.30;99.90;;;;;;2060138;28;20034;-70
2021/06/09 04:59:48;;;;;;;32.03;28.45;;;19.30;99.90;;;;;;2057552;28;20026;-70
2021/06/09 05:00:50;;;;;;;31.88;28.67;;;19.40;99.90;;;;;;2057455;28;20572;-70
2021/06/09 05:01:51;;;;;;;29.58;26.52;;;19.40;99.90;;;;;;2060983;28;20027;-70
2021/06/09 05:02:51;;;;;;;30.20;27.40;;;19.50;99.90;;;;;;2062171;28;20026;-70
2021/06/09 05:03:52;;;;;;;31.13;28.02;;;19.50;99.90;;;;;;2061305;28;20030;-70
2021/06/09 05:04:52;;;;;;;29.92;26.92;;;19.60;99.90;;;;;;2062375;28;20026;-70
2021/06/09 05:05:53;;;;;;;31.13;27.83;;;19.70;99.90;;;;;;2063743;28;20035;-70
2021/06/09 05:06:54;;;;;;;31.45;28.27;;;19.70;99.90;;;;;;2063255;28;20116;-70
2021/06/09 05:07:54;;;;;;;29.50;26.48;;;19.80;99.90;;;;;;2054883;28;20030;-70
2021/06/09 05:08:55;;;;;;;28.65;25.65;;;19.80;99.90;;;;;;2054122;28;20444;-70
2021/06/09 05:09:57;;;;;;;33.63;30.02;;;19.90;99.90;;;;;;2062219;28;20095;-70
2021/06/09 05:11:00;;;;;;;31.08;27.98;;;19.90;99.90;;;;;;2062161;28;20014;-70
2021/06/09 05:12:06;;;;;;;30.38;27.15;;;20.00;99.90;;;;;;2063309;28;20045;-70
2021/06/09 05:13:15;;;;;;;29.33;26.45;;;20.10;99.90;;;;;;2062716;28;20031;-70
2021/06/09 05:14:29;;;;;;;30.60;27.38;;;20.20;99.90;;;;;;2061301;28;20046;-70
2021/06/09 05:15:35;;;;;;;29.35;26.25;;;20.30;99.90;;;;;;2078414;28;20047;-70
2021/06/09 05:16:38;;;;;;;30.55;27.55;;;20.30;99.90;;;;;;2073210;28;20026;-70
2021/06/09 05:17:49;;;;;;;32.20;28.90;;;20.40;99.90;;;;;;2063788;28;20014;-70
2021/06/09 05:18:54;;;;;;;29.23;25.95;;;20.50;99.90;;;;;;2060768;28;20041;-70
2021/06/09 05:19:57;;;;;;;30.60;26.60;;;20.50;99.90;;;;;;2061528;28;20041;-70
2021/06/09 05:20:58;;;;;;;30.00;27.00;;;20.60;99.90;;;;;;2061014;28;20031;-70
2021/06/09 05:22:24;;;;;;;29.17;26.20;;;20.70;99.90;;;;;;2055600;28;20030;-70
2021/06/09 05:23:28;;;;;;;26.80;24.15;;;20.70;99.90;;;;;;2062322;28;20700;-70
2021/06/09 05:24:32;;;;;;;27.60;24.85;;;20.80;99.90;;;;;;2065174;28;20033;-70